Time;durP1;ratioP1;P1;durP2;ratioP2;P2;SDS_P1;SDS_P2;PMS_P1;PMS_P2;Temp;Humidity;BMP_temperature;BMP_pressure;BME280_temperature;BME280_humidity;BME280_pressure;Samples;Min_cycle;Max_cycle;Signal;HPM_P1;HPM_P2
2021/08/23 00:02:08;;;;;;;13.82;10.38;;;18.30;99.90;;;;;;8258083;28;20046;-73
2021/08/23 00:06:10;;;;;;;12.02;9.13;;;18.30;99.90;;;;;;8260034;28;20065;-73
2021/08/23 00:10:13;;;;;;;12.32;8.88;;;18.30;99.90;;;;;;8260692;28;20042;-73
2021/08/23 00:14:14;;;;;;;13.60;8.98;;;18.30;99.90;;;;;;8255642;28;20112;-73
2021/08/23 00:18:16;;;;;;;12.13;8.77;;;18.30;99.90;;;;;;8269302;28;20077;-73
2021/08/23 00:22:32;;;;;;;13.48;8.43;;;18.30;99.90;;;;;;8258252;28;20046;-73
2021/08/23 00:26:34;;;;;;;10.95;8.30;;;18.30;99.90;;;;;;8258774;28;20062;-73
2021/08/23 00:30:36;;;;;;;12.38;8.45;;;18.30;99.90;;;;;;8258533;28;20042;-73
2021/08/23 00:34:38;;;;;;;11.38;8.23;;;18.40;99.90;;;;;;8256216;28;20050;-73
2021/08/23 00:38:40;;;;;;;11.05;7.72;;;18.30;99.90;;;;;;8253608;28;20054;-73
2021/08/23 00:42:41;;;;;;;10.40;7.90;;;18.30;99.90;;;;;;8252801;28;20042;-73
2021/08/23 00:46:43;;;;;;;12.23;8.00;;;18.40;99.90;;;;;;8258445;28;20065;-73
2021/08/23 00:50:45;;;;;;;10.32;7.57;;;18.30;99.90;;;;;;8256659;28;20042;-73
2021/08/23 00:54:47;;;;;;;10.68;7.95;;;18.30;99.90;;;;;;8252598;28;20046;-73
2021/08/23 00:58:49;;;;;;;15.18;9.10;;;18.40;99.90;;;;;;8256962;28;20414;-73
2021/08/23 01:03:15;;;;;;;12.93;8.88;;;18.30;99.90;;;;;;8255242;28;20486;-73
2021/08/23 01:07:20;;;;;;;13.73;9.30;;;18.30;99.90;;;;;;8255805;28;20054;-73
2021/08/23 01:11:22;;;;;;;11.85;9.23;;;18.30;99.90;;;;;;8254573;28;20046;-73
2021/08/23 01:15:24;;;;;;;12.80;8.75;;;18.30;99.90;;;;;;8256620;28;20090;-73
2021/08/23 01:19:27;;;;;;;12.65;9.32;;;18.30;99.90;;;;;;8256580;28;20065;-73
2021/08/23 01:23:34;;;;;;;14.25;10.23;;;18.30;99.90;;;;;;8256896;28;20109;-73
2021/08/23 01:27:38;;;;;;;14.35;10.55;;;18.30;99.90;;;;;;8253490;28;20046;-73
2021/08/23 01:32:07;;;;;;;16.85;11.38;;;18.30;99.90;;;;;;8255674;28;20486;-73
2021/08/23 01:36:09;;;;;;;15.10;11.35;;;18.30;99.90;;;;;;8250065;28;20057;-73
2021/08/23 01:40:11;;;;;;;16.38;11.18;;;18.30;99.90;;;;;;8271226;28;20053;-73
2021/08/23 01:44:13;;;;;;;18.58;11.45;;;18.30;99.90;;;;;;8257421;28;20156;-73
2021/08/23 01:48:15;;;;;;;17.20;11.20;;;18.30;99.90;;;;;;8255797;28;20050;-73
2021/08/23 01:52:16;;;;;;;17.45;12.57;;;18.30;99.90;;;;;;8256102;28;20061;-73
2021/08/23 01:56:19;;;;;;;20.60;14.45;;;18.30;99.90;;;;;;8258380;28;20046;-73
2021/08/23 02:00:21;;;;;;;24.08;15.18;;;18.30;99.90;;;;;;8247522;28;20055;-73
2021/08/23 02:04:23;;;;;;;27.15;16.52;;;18.30;99.90;;;;;;8255235;28;20051;-73
2021/08/23 02:08:24;;;;;;;24.40;15.65;;;18.20;99.90;;;;;;8257367;28;20050;-74
2021/08/23 02:12:26;;;;;;;23.30;15.98;;;18.10;99.90;;;;;;8254379;28;20050;-73
2021/08/23 02:16:28;;;;;;;26.67;16.05;;;18.10;99.90;;;;;;8256598;28;20054;-73
2021/08/23 02:20:30;;;;;;;25.15;15.65;;;18.10;99.90;;;;;;8257315;28;20415;-73
2021/08/23 02:24:33;;;;;;;24.50;16.00;;;18.10;99.90;;;;;;8263514;28;20058;-73
2021/08/23 02:28:34;;;;;;;29.38;17.33;;;18.10;99.90;;;;;;8261793;28;20073;-73
2021/08/23 02:32:36;;;;;;;29.80;17.38;;;18.00;99.90;;;;;;8255368;28;20043;-74
2021/08/23 02:36:38;;;;;;;30.33;18.02;;;18.00;99.90;;;;;;8262831;28;20058;-73
2021/08/23 02:40:40;;;;;;;31.50;17.45;;;17.90;99.90;;;;;;8255678;28;20042;-73
2021/08/23 02:44:42;;;;;;;31.40;17.60;;;17.90;99.90;;;;;;8249133;28;20050;-73
2021/08/23 02:48:45;;;;;;;33.67;17.65;;;17.90;99.90;;;;;;8259848;28;20061;-73
2021/08/23 02:52:47;;;;;;;31.60;17.25;;;17.90;99.90;;;;;;8261794;28;20137;-73
2021/08/23 02:56:49;;;;;;;29.85;17.42;;;17.90;99.90;;;;;;8263318;28;20046;-73
2021/08/23 03:00:51;;;;;;;29.50;16.38;;;17.90;99.90;;;;;;8257003;28;20078;-73
2021/08/23 03:05:18;;;;;;;28.27;16.55;;;17.80;99.90;;;;;;8253573;28;20070;-73
2021/08/23 03:09:19;;;;;;;33.05;17.30;;;17.80;99.90;;;;;;8258225;28;20392;-73
2021/08/23 03:13:22;;;;;;;24.58;15.05;;;17.80;99.90;;;;;;8258054;28;20074;-73
2021/08/23 03:17:24;;;;;;;29.00;16.55;;;17.80;99.90;;;;;;8258760;28;20057;-73
2021/08/23 03:21:26;;;;;;;30.70;16.67;;;17.80;99.90;;;;;;8257255;28;20050;-73
2021/08/23 03:25:28;;;;;;;24.77;15.45;;;17.70;99.90;;;;;;8259021;28;20058;-73
2021/08/23 03:29:29;;;;;;;24.42;15.00;;;17.70;99.90;;;;;;8255540;28;20046;-73
2021/08/23 03:33:32;;;;;;;23.50;13.88;;;17.70;99.90;;;;;;8275297;28;20042;-73
2021/08/23 03:37:34;;;;;;;24.58;14.65;;;17.70;99.90;;;;;;8249123;28;20050;-73
2021/08/23 03:41:36;;;;;;;26.23;15.43;;;17.70;99.90;;;;;;8254021;28;20050;-73
2021/08/23 03:45:38;;;;;;;30.92;14.85;;;17.70;99.90;;;;;;8261902;28;20053;-73
2021/08/23 03:49:40;;;;;;;25.25;14.70;;;17.70;99.90;;;;;;8259601;28;20047;-73
2021/08/23 03:53:41;;;;;;;21.65;13.82;;;17.70;99.90;;;;;;8252846;28;20053;-73
2021/08/23 03:57:43;;;;;;;23.10;14.23;;;17.70;99.90;;;;;;8260918;28;20051;-73
2021/08/23 04:01:45;;;;;;;22.15;14.88;;;17.60;99.90;;;;;;8255541;28;20050;-73
2021/08/23 04:05:47;;;;;;;22.98;14.13;;;17.60;99.90;;;;;;8258550;28;20054;-73
2021/08/23 04:09:48;;;;;;;19.88;14.65;;;17.50;99.90;;;;;;8258357;28;20083;-73
2021/08/23 04:13:50;;;;;;;20.05;13.25;;;17.50;99.90;;;;;;8257432;28;20057;-73
2021/08/23 04:17:52;;;;;;;21.40;12.82;;;17.50;99.90;;;;;;8258209;28;20058;-72
2021/08/23 04:21:54;;;;;;;18.05;12.27;;;17.50;99.90;;;;;;8257562;28;20085;-73
2021/08/23 04:25:56;;;;;;;19.50;12.40;;;17.50;99.90;;;;;;8258058;28;20057;-73
2021/08/23 04:29:57;;;;;;;19.52;12.50;;;17.40;99.90;;;;;;8257135;28;20051;-73
2021/08/23 04:33:59;;;;;;;17.77;11.23;;;17.50;99.90;;;;;;8258531;28;20046;-73
2021/08/23 04:38:01;;;;;;;18.65;12.52;;;17.50;99.90;;;;;;8259297;28;20050;-73
2021/08/23 04:42:03;;;;;;;19.90;11.82;;;17.50;99.90;;;;;;8259449;28;20046;-73
2021/08/23 04:46:05;;;;;;;19.88;12.25;;;17.50;99.90;;;;;;8258259;28;20046;-73
2021/08/23 04:50:07;;;;;;;20.48;12.70;;;17.50;99.90;;;;;;8255536;28;20381;-73
2021/08/23 04:54:09;;;;;;;19.17;11.65;;;17.50;99.90;;;;;;8250765;28;20057;-73
2021/08/23 04:58:10;;;;;;;17.67;11.52;;;17.50;99.90;;;;;;8258570;28;20439;-73
2021/08/23 05:02:12;;;;;;;17.73;11.07;;;17.50;99.90;;;;;;8260925;28;20046;-74
2021/08/23 05:06:14;;;;;;;20.55;11.52;;;17.50;99.90;;;;;;8259843;28;20054;-73
2021/08/23 05:10:15;;;;;;;19.55;10.98;;;17.50;99.90;;;;;;8259694;28;20097;-73
2021/08/23 05:14:17;;;;;;;15.80;9.55;;;17.50;99.90;;;;;;8263225;28;20053;-73
2021/08/23 05:18:19;;;;;;;14.25;10.13;;;17.50;99.90;;;;;;8258539;28;20054;-73
2021/08/23 05:22:21;;;;;;;15.70;9.25;;;17.50;99.90;;;;;;8254209;28;20582;-73
2021/08/23 05:26:23;;;;;;;18.52;9.02;;;17.60;99.90;;;;;;8270369;28;20054;-73
2021/08/23 05:30:24;;;;;;;15.20;8.52;;;17.60;99.90;;;;;;8249825;28;20078;-73
2021/08/23 05:34:26;;;;;;;12.18;7.63;;;17.60;99.90;;;;;;8265496;28;20475;-73
2021/08/23 05:38:30;;;;;;;12.52;7.60;;;17.60;99.90;;;;;;8256236;28;20105;-73
2021/08/23 05:42:31;;;;;;;11.18;6.90;;;17.60;99.90;;;;;;8253548;28;20512;-73
2021/08/23 05:46:33;;;;;;;11.45;6.65;;;17.60;99.90;;;;;;8255911;28;20483;-73
2021/08/23 05:50:35;;;;;;;12.50;6.20;;;17.60;99.90;;;;;;8258430;28;20046;-73
2021/08/23 05:54:39;;;;;;;11.63;6.05;;;17.60;99.90;;;;;;8251588;28;20046;-73
2021/08/23 05:58:41;;;;;;;10.63;5.88;;;17.60;99.90;;;;;;8263483;28;20105;-73
2021/08/23 06:02:42;;;;;;;12.68;5.68;;;17.60;99.90;;;;;;8262879;28;20053;-73
2021/08/23 06:06:44;;;;;;;10.27;5.80;;;17.60;99.90;;;;;;8265149;28;20066;-73
2021/08/23 06:10:46;;;;;;;9.00;5.03;;;17.60;99.90;;;;;;8265022;28;20054;-73
2021/08/23 06:14:48;;;;;;;13.43;5.07;;;17.60;99.90;;;;;;8261693;28;20046;-73
2021/08/23 06:18:50;;;;;;;8.82;5.15;;;17.60;99.90;;;;;;8265966;28;20065;-73
2021/08/23 06:22:51;;;;;;;11.38;5.32;;;17.60;99.90;;;;;;8264703;28;20046;-73
2021/08/23 06:26:57;;;;;;;10.45;5.40;;;17.70;99.90;;;;;;8264907;28;20057;-73
2021/08/23 06:30:59;;;;;;;9.00;5.05;;;17.70;99.90;;;;;;8265564;28;20057;-73
2021/08/23 06:35:03;;;;;;;10.55;5.13;;;17.70;99.90;;;;;;8278928;28;20527;-73
2021/08/23 06:39:05;;;;;;;9.35;5.50;;;17.70;99.90;;;;;;8266310;28;20058;-72
2021/08/23 06:43:06;;;;;;;10.25;5.30;;;17.70;99.90;;;;;;8264423;28;20057;-73
2021/08/23 06:47:08;;;;;;;10.50;4.65;;;17.70;99.90;;;;;;8266214;28;20053;-73
2021/08/23 06:51:11;;;;;;;9.98;5.05;;;17.70;99.90;;;;;;8263871;28;20534;-73
2021/08/23 06:55:12;;;;;;;9.68;5.00;;;17.70;99.90;;;;;;8264315;28;20053;-72
2021/08/23 06:59:14;;;;;;;11.63;5.43;;;17.70;99.90;;;;;;8264572;28;20458;-73
2021/08/23 07:03:16;;;;;;;13.88;4.90;;;17.80;99.90;;;;;;8277190;28;20053;-73
2021/08/23 07:07:17;;;;;;;13.85;4.97;;;17.80;99.90;;;;;;8254661;28;20050;-73
2021/08/23 07:11:19;;;;;;;11.95;4.68;;;17.80;99.90;;;;;;8263383;28;20046;-73
2021/08/23 07:15:21;;;;;;;12.98;5.05;;;17.80;99.90;;;;;;8256369;28;20046;-73
2021/08/23 07:19:22;;;;;;;8.15;3.97;;;17.90;99.90;;;;;;8262140;28;20125;-73
2021/08/23 07:23:24;;;;;;;9.65;4.15;;;17.90;99.90;;;;;;8259573;28;20046;-73
2021/08/23 07:27:26;;;;;;;6.38;3.58;;;17.90;99.90;;;;;;8260693;28;20054;-73
2021/08/23 07:31:28;;;;;;;8.77;4.00;;;18.00;99.90;;;;;;8257180;28;20045;-73
2021/08/23 07:35:29;;;;;;;8.65;3.42;;;18.00;99.90;;;;;;8259598;28;20042;-73
2021/08/23 07:39:31;;;;;;;9.27;3.67;;;18.00;99.90;;;;;;8262774;28;20050;-73
2021/08/23 07:43:33;;;;;;;7.20;3.53;;;18.10;99.90;;;;;;8262322;28;20454;-72
2021/08/23 07:47:37;;;;;;;8.82;3.47;;;18.10;99.90;;;;;;8264583;28;20734;-73
2021/08/23 07:51:38;;;;;;;8.43;3.10;;;18.10;99.90;;;;;;8261772;28;20043;-73
2021/08/23 07:55:40;;;;;;;12.77;3.42;;;18.20;99.90;;;;;;8259963;28;20042;-73
2021/08/23 07:59:42;;;;;;;6.70;2.88;;;18.20;99.90;;;;;;8261630;28;20042;-73
2021/08/23 08:03:43;;;;;;;11.75;3.42;;;18.30;99.90;;;;;;8259399;28;20486;-73
2021/08/23 08:07:45;;;;;;;5.72;2.95;;;18.20;99.90;;;;;;8258412;28;20043;-73
2021/08/23 08:11:47;;;;;;;7.93;3.30;;;18.30;99.90;;;;;;8259874;28;20489;-73
2021/08/23 08:15:50;;;;;;;6.45;2.92;;;18.30;99.90;;;;;;8257775;28;20046;-73
2021/08/23 08:19:53;;;;;;;5.28;2.53;;;18.30;99.90;;;;;;8259539;28;20457;-73
2021/08/23 08:23:54;;;;;;;8.45;3.28;;;18.40;99.90;;;;;;8260699;28;20054;-72
2021/08/23 08:27:56;;;;;;;8.77;2.70;;;18.40;99.90;;;;;;8255180;28;20057;-73
2021/08/23 08:31:58;;;;;;;6.22;3.00;;;18.50;99.90;;;;;;8260700;28;20046;-72
2021/08/23 08:36:00;;;;;;;5.32;2.88;;;18.60;99.90;;;;;;8260132;28;20047;-72
2021/08/23 08:40:03;;;;;;;6.45;2.90;;;18.70;99.90;;;;;;8258216;28;20173;-73
2021/08/23 08:44:05;;;;;;;6.10;2.47;;;18.80;99.90;;;;;;8259943;28;20046;-73
2021/08/23 08:48:08;;;;;;;4.70;2.22;;;18.90;99.90;;;;;;8259091;28;20057;-73
2021/08/23 08:52:12;;;;;;;9.63;2.63;;;19.10;99.90;;;;;;8258166;28;20049;-73
2021/08/23 08:56:13;;;;;;;6.32;2.45;;;19.10;99.90;;;;;;8259119;28;20046;-73
2021/08/23 09:00:15;;;;;;;4.93;2.28;;;19.10;99.90;;;;;;8259698;28;20061;-73
2021/08/23 09:04:27;;;;;;;4.38;2.30;;;19.10;99.90;;;;;;8274832;28;20096;-73
2021/08/23 09:08:42;;;;;;;5.43;2.25;;;19.10;99.90;;;;;;8257492;28;20338;-73
2021/08/23 09:12:44;;;;;;;8.55;2.42;;;19.20;99.90;;;;;;8259066;28;20050;-73
2021/08/23 09:16:45;;;;;;;;;;;19.40;99.90;;;;;;8258082;28;20046;-73
2021/08/23 09:21:03;;;;;;;6.90;2.40;;;19.50;99.90;;;;;;8259167;28;19968;-73
2021/08/23 09:25:08;;;;;;;;;;;19.60;99.90;;;;;;8258404;28;20246;-72
2021/08/23 09:29:10;;;;;;;;;;;19.70;99.90;;;;;;8262745;28;19926;-72
2021/08/23 09:33:12;;;;;;;;;;;19.90;99.90;;;;;;8260272;28;19941;-72
2021/08/23 09:37:14;;;;;;;;;;;20.00;99.90;;;;;;8259010;28;19930;-72
2021/08/23 09:41:21;;;;;;;;;;;20.10;99.90;;;;;;8261841;28;19930;-72
2021/08/23 09:45:23;;;;;;;;;;;20.20;99.90;;;;;;8259244;28;19926;-72
2021/08/23 09:49:32;;;;;;;;;;;20.30;99.90;;;;;;8260014;28;20333;-72
2021/08/23 09:53:35;;;;;;;;;;;20.40;99.90;;;;;;8260337;28;19926;-72
2021/08/23 09:57:43;;;;;;;;;;;20.50;99.90;;;;;;8256870;28;19932;-72
2021/08/23 10:01:45;;;;;;;;;;;20.50;99.90;;;;;;8258927;28;20416;-73
2021/08/23 10:05:48;;;;;;;;;;;20.50;99.90;;;;;;8257486;28;19949;-72
2021/08/23 10:09:49;;;;;;;;;;;20.50;99.90;;;;;;8257987;28;20016;-73
2021/08/23 10:13:55;;;;;;;;;;;20.50;99.90;;;;;;8274804;28;19925;-72
2021/08/23 10:17:59;;;;;;;;;;;20.50;99.90;;;;;;8256896;28;19934;-72
2021/08/23 10:22:01;;;;;;;;;;;20.50;99.90;;;;;;8258966;28;19926;-72
2021/08/23 10:26:03;;;;;;;;;;;20.50;99.90;;;;;;8260323;28;19945;-73
2021/08/23 10:30:05;;;;;;;;;;;20.50;99.90;;;;;;8259852;28;19945;-73
2021/08/23 10:34:14;;;;;;;;;;;20.50;99.90;;;;;;8260490;28;20381;-72
2021/08/23 10:38:20;;;;;;;;;;;20.60;99.90;;;;;;8260748;28;19921;-73
2021/08/23 10:42:21;;;;;;;;;;;20.60;99.90;;;;;;8256255;28;19926;-72
2021/08/23 10:46:23;;;;;;;;;;;20.80;99.90;;;;;;8254169;28;19922;-73
2021/08/23 10:50:26;;;;;;;;;;;20.80;99.90;;;;;;8258702;28;19965;-73
2021/08/23 10:54:32;;;;;;;;;;;20.90;99.90;;;;;;8255890;28;19956;-73
2021/08/23 10:58:34;;;;;;;;;;;21.00;99.90;;;;;;8259821;28;19966;-73
2021/08/23 11:02:37;;;;;;;;;;;21.00;99.90;;;;;;8260213;28;19928;-73
2021/08/23 11:06:47;;;;;;;;;;;20.90;99.90;;;;;;8258113;28;19921;-72
2021/08/23 11:10:50;;;;;;;;;;;20.90;99.90;;;;;;8255817;28;20013;-72
2021/08/23 11:14:52;;;;;;;;;;;21.00;99.90;;;;;;8256800;28;19929;-73
2021/08/23 11:18:54;;;;;;;;;;;20.90;99.90;;;;;;8257221;28;19937;-72
2021/08/23 11:22:59;;;;;;;;;;;21.00;99.90;;;;;;8260345;28;19944;-73
2021/08/23 11:27:02;;;;;;;;;;;21.10;99.90;;;;;;8253959;28;19926;-73
2021/08/23 11:31:05;;;;;;;;;;;21.20;99.90;;;;;;8257088;28;19928;-73
2021/08/23 11:35:07;;;;;;;;;;;21.30;99.90;;;;;;8255364;28;19922;-73
2021/08/23 11:39:12;;;;;;;;;;;21.30;99.90;;;;;;8257293;28;19929;-73
2021/08/23 11:43:13;;;;;;;;;;;21.30;99.90;;;;;;8255679;28;20294;-73
2021/08/23 11:47:15;;;;;;;;;;;21.30;99.90;;;;;;8253320;28;20453;-73
2021/08/23 11:51:25;;;;;;;;;;;21.30;99.90;;;;;;8256391;28;20381;-72
2021/08/23 11:55:32;;;;;;;;;;;21.30;99.90;;;;;;8254631;28;19949;-73
2021/08/23 11:59:34;;;;;;;;;;;21.30;99.90;;;;;;8254247;28;20008;-73
2021/08/23 12:03:37;;;;;;;;;;;21.30;99.90;;;;;;8256447;28;20917;-72
2021/08/23 12:07:40;;;;;;;;;;;21.40;99.90;;;;;;8252430;28;19930;-72
2021/08/23 12:11:43;;;;;;;;;;;21.40;99.90;;;;;;8267113;28;19928;-72
2021/08/23 12:15:50;;;;;;;;;;;21.50;99.90;;;;;;8253465;28;19930;-72
2021/08/23 12:20:02;;;;;;;;;;;21.60;99.90;;;;;;8255363;28;19972;-72
2021/08/23 12:24:05;;;;;;;;;;;21.70;99.90;;;;;;8253286;28;19929;-72
2021/08/23 12:28:14;;;;;;;;;;;21.80;99.90;;;;;;8253289;28;19976;-72
2021/08/23 12:32:16;;;;;;;;;;;21.90;99.90;;;;;;8255601;28;20040;-72
2021/08/23 12:36:17;;;;;;;;;;;21.90;99.90;;;;;;8253557;28;19940;-72
2021/08/23 12:40:19;;;;;;;;;;;21.80;99.90;;;;;;8252727;28;20593;-72
2021/08/23 12:44:21;;;;;;;;;;;21.80;99.90;;;;;;8252885;28;19932;-72
2021/08/23 12:48:22;;;;;;;;;;;21.80;99.90;;;;;;8255049;28;19921;-72
2021/08/23 12:52:24;;;;;;;;;;;21.80;99.90;;;;;;8255680;28;19922;-72
2021/08/23 12:56:26;;;;;;;;;;;21.70;99.90;;;;;;8253320;28;19932;-73
2021/08/23 13:00:27;;;;;;;;;;;21.70;99.90;;;;;;8256008;28;19933;-73
2021/08/23 13:04:32;;;;;;;;;;;21.70;99.90;;;;;;8254302;28;20377;-72
2021/08/23 13:08:34;;;;;;;;;;;21.70;99.90;;;;;;8255207;28;19921;-72
2021/08/23 13:12:36;;;;;;;;;;;21.70;99.90;;;;;;8267110;28;20653;-73
2021/08/23 13:16:37;;;;;;;;;;;21.70;99.90;;;;;;8267685;28;19957;-74
2021/08/23 13:20:39;;;;;;;;;;;21.70;99.90;;;;;;8255636;28;20008;-73
2021/08/23 13:24:42;;;;;;;;;;;21.70;99.90;;;;;;8251653;28;20032;-72
2021/08/23 13:28:44;;;;;;;;;;;21.80;99.90;;;;;;8253744;28;19925;-73
2021/08/23 13:32:45;;;;;;;;;;;21.80;99.90;;;;;;8256700;28;19929;-73
2021/08/23 13:36:48;;;;;;;;;;;21.80;99.90;;;;;;8254100;28;19922;-73
2021/08/23 13:40:50;;;;;;;;;;;21.90;99.90;;;;;;8253060;28;19936;-73
2021/08/23 13:44:52;;;;;;;;;;;21.90;99.90;;;;;;8253731;28;19944;-72
2021/08/23 13:48:53;;;;;;;;;;;21.80;99.90;;;;;;8255260;28;19922;-72
2021/08/23 13:52:55;;;;;;;;;;;21.80;99.90;;;;;;8255784;28;19952;-72
2021/08/23 13:56:59;;;;;;;;;;;21.80;99.90;;;;;;8254705;28;19925;-73
2021/08/23 14:01:01;;;;;;;;;;;21.80;99.90;;;;;;8254848;28;19944;-73
2021/08/23 14:05:03;;;;;;;;;;;21.80;99.90;;;;;;8266779;28;19921;-72
2021/08/23 14:09:19;;;;;;;;;;;21.70;99.90;;;;;;8252704;28;20261;-73
2021/08/23 14:13:21;;;;;;;;;;;21.70;99.90;;;;;;8256929;28;19925;-73
2021/08/23 14:17:22;;;;;;;;;;;21.70;99.90;;;;;;8259267;28;19932;-73
2021/08/23 14:21:24;;;;;;;;;;;21.60;99.90;;;;;;8260045;28;19949;-72
2021/08/23 14:25:26;;;;;;;;;;;21.50;99.90;;;;;;8259503;28;19929;-73
2021/08/23 14:29:28;;;;;;;;;;;21.50;99.90;;;;;;8261008;28;19927;-73
2021/08/23 14:33:30;;;;;;;;;;;21.50;99.90;;;;;;8260218;28;19942;-73
2021/08/23 14:37:31;;;;;;;;;;;21.60;99.90;;;;;;8259333;28;19945;-74
2021/08/23 14:41:33;;;;;;;;;;;21.70;99.90;;;;;;8261618;28;19941;-73
2021/08/23 14:45:35;;;;;;;;;;;21.80;99.90;;;;;;8256808;28;20426;-73
2021/08/23 14:49:37;;;;;;;;;;;22.00;99.90;;;;;;8259199;28;19936;-73
2021/08/23 14:53:38;;;;;;;;;;;22.00;99.90;;;;;;8260655;28;19929;-73
2021/08/23 14:57:40;;;;;;;;;;;22.00;99.90;;;;;;8257253;28;20290;-72
2021/08/23 15:01:42;;;;;;;;;;;22.10;99.90;;;;;;8261469;28;19957;-73
2021/08/23 15:05:43;;;;;;;;;;;22.20;99.90;;;;;;8256975;28;20328;-72
2021/08/23 15:09:45;;;;;;;;;;;22.20;99.90;;;;;;8272910;28;20262;-72
2021/08/23 15:13:47;;;;;;;;;;;22.30;99.90;;;;;;8245210;28;20374;-72
2021/08/23 15:17:49;;;;;;;;;;;22.30;99.90;;;;;;8254179;28;19992;-73
2021/08/23 15:21:52;;;;;;;;;;;22.40;99.90;;;;;;8255462;28;20355;-73
2021/08/23 15:25:55;;;;;;;;;;;22.40;99.90;;;;;;8256313;28;19925;-72
2021/08/23 15:29:57;;;;;;;;;;;22.40;99.90;;;;;;8255929;28;19922;-72
2021/08/23 15:33:58;;;;;;;;;;;22.50;99.90;;;;;;8252375;28;20209;-72
2021/08/23 15:38:00;;;;;;;;;;;22.50;99.90;;;;;;8267630;28;19925;-73
2021/08/23 15:42:02;;;;;;;;;;;22.50;99.90;;;;;;8247758;28;19926;-72
2021/08/23 15:46:04;;;;;;;;;;;22.60;99.90;;;;;;8249618;28;20296;-72
2021/08/23 15:50:06;;;;;;;;;;;22.70;99.90;;;;;;8248611;28;19922;-73
2021/08/23 15:54:08;;;;;;;;;;;22.70;99.90;;;;;;8248738;28;20654;-72
2021/08/23 15:58:11;;;;;;;;;;;22.80;99.90;;;;;;8250261;28;20345;-72
2021/08/23 16:02:13;;;;;;;;;;;22.80;99.90;;;;;;8251958;28;20400;-72
2021/08/23 16:06:15;;;;;;;;;;;22.90;99.90;;;;;;8251160;28;19999;-72
2021/08/23 16:10:16;;;;;;;;;;;23.00;99.90;;;;;;8253438;28;19922;-72
2021/08/23 16:14:18;;;;;;;;;;;23.10;99.90;;;;;;8250878;28;20000;-73
2021/08/23 16:18:20;;;;;;;;;;;23.10;99.90;;;;;;8251834;28;19957;-72
2021/08/23 16:22:22;;;;;;;;;;;23.20;99.90;;;;;;8256301;28;19992;-73
2021/08/23 16:26:26;;;;;;;;;;;23.20;99.90;;;;;;8255383;28;22259;-73
2021/08/23 16:30:28;;;;;;;;;;;23.30;99.90;;;;;;8255464;28;19929;-72
2021/08/23 16:34:30;;;;;;;;;;;23.30;99.90;;;;;;8252950;28;19965;-73
2021/08/23 16:38:31;;;;;;;;;;;23.50;99.90;;;;;;8253971;28;19930;-73
2021/08/23 16:42:33;;;;;;;;;;;23.50;99.90;;;;;;8252995;28;20338;-73
2021/08/23 16:46:35;;;;;;;;;;;23.60;99.90;;;;;;8254575;28;20373;-73
2021/08/23 16:50:39;;;;;;;;;;;23.70;99.90;;;;;;8255593;28;19927;-73
2021/08/23 16:54:41;;;;;;;;;;;23.80;99.90;;;;;;8255294;28;19932;-73
2021/08/23 16:58:44;;;;;;;;;;;23.90;99.90;;;;;;8253452;28;20204;-72
2021/08/23 17:02:46;;;;;;;;;;;24.00;99.90;;;;;;8253023;28;20345;-73
2021/08/23 17:06:48;;;;;;;;;;;24.10;99.90;;;;;;8252589;28;19925;-73
2021/08/23 17:10:50;;;;;;;;;;;24.10;99.90;;;;;;8255091;28;20288;-73
2021/08/23 17:14:52;;;;;;;;;;;24.20;99.90;;;;;;8251041;28;19945;-73
2021/08/23 17:18:53;;;;;;;;;;;24.20;99.90;;;;;;8251402;28;19922;-72
2021/08/23 17:22:55;;;;;;;;;;;24.20;99.90;;;;;;8253038;28;19921;-73
2021/08/23 17:26:57;;;;;;;;;;;24.20;99.90;;;;;;8252989;28;19962;-73
2021/08/23 17:30:58;;;;;;;;;;;24.00;99.90;;;;;;8251525;28;19921;-73
2021/08/23 17:35:00;;;;;;;;;;;23.80;99.90;;;;;;8251724;28;19932;-73
2021/08/23 17:39:02;;;;;;;;;;;23.70;99.90;;;;;;8254264;28;19949;-73
2021/08/23 17:43:03;;;;;;;;;;;23.50;99.90;;;;;;8255660;28;19926;-72
2021/08/23 17:47:07;;;;;;;;;;;23.40;99.90;;;;;;8253260;28;20395;-72
2021/08/23 17:51:09;;;;;;;3.47;1.42;;;23.20;99.90;;;;;;8261493;28;19933;-73
2021/08/23 17:55:13;;;;;;;3.88;1.40;;;23.10;99.90;;;;;;8258092;28;20053;-73
2021/08/23 17:59:14;;;;;;;3.95;1.42;;;22.90;99.90;;;;;;8274889;28;20046;-73
2021/08/23 18:03:16;;;;;;;3.83;1.42;;;22.80;99.90;;;;;;8259930;28;20046;-73
2021/08/23 18:07:18;;;;;;;5.15;1.55;;;22.70;99.90;;;;;;8259926;28;20038;-73
2021/08/23 18:11:20;;;;;;;4.05;1.50;;;22.60;99.90;;;;;;8261120;28;20050;-73
2021/08/23 18:15:21;;;;;;;3.80;1.48;;;22.50;99.90;;;;;;8255461;28;20058;-73
2021/08/23 18:19:23;;;;;;;5.15;1.45;;;22.40;99.90;;;;;;8258988;28;20051;-73
2021/08/23 18:23:25;;;;;;;3.60;1.60;;;22.30;99.90;;;;;;8259628;28;20057;-73
2021/08/23 18:27:27;;;;;;;3.58;1.50;;;22.20;99.90;;;;;;8258873;28;20529;-73
2021/08/23 18:31:28;;;;;;;4.03;1.40;;;22.10;99.90;;;;;;8258237;28;20038;-73
2021/08/23 18:35:30;;;;;;;4.35;1.50;;;22.00;99.90;;;;;;8255622;28;22342;-73
2021/08/23 18:39:32;;;;;;;4.68;1.60;;;21.90;99.90;;;;;;8258077;28;20649;-73
2021/08/23 18:43:34;;;;;;;6.07;1.77;;;21.80;99.90;;;;;;8253863;28;20050;-73
2021/08/23 18:47:35;;;;;;;4.80;2.00;;;21.70;99.90;;;;;;8257526;28;20046;-73
2021/08/23 18:51:37;;;;;;;4.07;1.65;;;21.60;99.90;;;;;;8252083;28;20072;-73
2021/08/23 18:55:40;;;;;;;5.90;1.88;;;21.50;99.90;;;;;;8251955;28;20057;-72
2021/08/23 18:59:42;;;;;;;5.55;1.90;;;21.40;99.90;;;;;;8252156;28;20054;-73
2021/08/23 19:03:44;;;;;;;4.57;1.70;;;21.30;99.90;;;;;;8266812;28;20050;-72
2021/08/23 19:07:45;;;;;;;5.70;1.83;;;21.20;99.90;;;;;;8254641;28;20046;-73
2021/08/23 19:11:47;;;;;;;3.97;1.80;;;21.20;99.90;;;;;;8253046;28;20064;-73
2021/08/23 19:15:49;;;;;;;7.18;1.70;;;21.10;99.90;;;;;;8253014;28;20050;-74
2021/08/23 19:19:58;;;;;;;5.30;1.90;;;21.00;99.90;;;;;;8250429;28;20049;-73
2021/08/23 19:24:00;;;;;;;8.75;1.90;;;20.90;99.90;;;;;;8249759;28;20061;-72
2021/08/23 19:28:03;;;;;;;3.95;1.80;;;20.80;99.90;;;;;;8249669;28;20058;-73
2021/08/23 19:32:05;;;;;;;4.75;1.60;;;20.80;99.90;;;;;;8249180;28;20057;-72
2021/08/23 19:36:07;;;;;;;4.40;1.90;;;20.70;99.90;;;;;;8248435;28;20150;-73
2021/08/23 19:40:09;;;;;;;5.28;1.70;;;20.70;99.90;;;;;;8250408;28;20053;-72
2021/08/23 19:44:11;;;;;;;3.67;1.70;;;20.60;99.90;;;;;;8247976;28;20050;-73
2021/08/23 19:48:13;;;;;;;6.65;2.10;;;20.50;99.90;;;;;;8248592;28;20065;-73
2021/08/23 19:52:15;;;;;;;5.68;1.80;;;20.50;99.90;;;;;;8251340;28;20047;-73
2021/08/23 19:56:17;;;;;;;7.50;1.67;;;20.40;99.90;;;;;;8246993;28;20042;-73
2021/08/23 20:00:19;;;;;;;6.25;2.30;;;20.40;99.90;;;;;;8247823;28;20050;-73
2021/08/23 20:04:23;;;;;;;4.55;1.83;;;20.30;99.90;;;;;;8244238;28;20176;-72
2021/08/23 20:08:24;;;;;;;5.15;2.08;;;20.30;99.90;;;;;;8251626;28;20046;-73
2021/08/23 20:12:26;;;;;;;6.90;2.03;;;20.30;99.90;;;;;;8251924;28;20105;-73
2021/08/23 20:16:28;;;;;;;7.65;2.00;;;20.20;99.90;;;;;;8250509;28;20050;-73
2021/08/23 20:20:30;;;;;;;4.40;2.17;;;20.10;99.90;;;;;;8254846;28;20054;-73
2021/08/23 20:24:32;;;;;;;6.35;2.25;;;20.10;99.90;;;;;;8251372;28;20058;-72
2021/08/23 20:28:34;;;;;;;4.43;1.98;;;20.00;99.90;;;;;;8252458;28;20473;-73
2021/08/23 20:32:36;;;;;;;4.40;1.90;;;20.00;99.90;;;;;;8251466;28;20391;-73
2021/08/23 20:40:49;;;;;;;5.18;2.17;;;19.90;99.90;;;;;;8253862;28;20046;-72
2021/08/23 20:44:53;;;;;;;5.30;1.90;;;19.80;99.90;;;;;;8251534;28;20461;-72
2021/08/23 20:48:55;;;;;;;5.78;2.00;;;19.80;99.90;;;;;;8252377;28;20046;-72
2021/08/23 20:52:57;;;;;;;4.80;2.15;;;19.70;99.90;;;;;;8251582;28;20042;-72
2021/08/23 20:56:59;;;;;;;4.70;2.17;;;19.60;99.90;;;;;;8250552;28;20042;-72
2021/08/23 21:01:01;;;;;;;5.43;2.30;;;19.60;99.90;;;;;;8253794;28;20434;-73
2021/08/23 21:05:04;;;;;;;6.72;2.10;;;19.60;99.90;;;;;;8254306;28;20050;-73
2021/08/23 21:09:06;;;;;;;5.68;2.60;;;19.50;99.90;;;;;;8258132;28;20057;-72
2021/08/23 21:13:08;;;;;;;6.43;2.35;;;19.50;99.90;;;;;;8256726;28;20050;-73
2021/08/23 21:17:10;;;;;;;4.57;2.20;;;19.40;99.90;;;;;;8257448;28;20041;-73
2021/08/23 21:21:13;;;;;;;5.63;2.20;;;19.40;99.90;;;;;;8258087;28;20050;-73
2021/08/23 21:25:16;;;;;;;4.93;2.15;;;19.40;99.90;;;;;;8255785;28;20050;-72
2021/08/23 21:29:18;;;;;;;5.32;2.40;;;19.30;99.90;;;;;;8258178;28;20053;-72
2021/08/23 21:33:20;;;;;;;6.38;2.42;;;19.30;99.90;;;;;;8255303;28;20343;-72
2021/08/23 21:37:21;;;;;;;5.40;2.30;;;19.30;99.90;;;;;;8272360;28;20046;-72
2021/08/23 21:41:23;;;;;;;6.10;2.47;;;19.30;99.90;;;;;;8258051;28;20046;-72
2021/08/23 21:45:25;;;;;;;6.60;2.70;;;19.20;99.90;;;;;;8254980;28;20486;-73
2021/08/23 21:49:27;;;;;;;5.57;2.45;;;19.20;99.90;;;;;;8256749;28;20046;-72
2021/08/23 21:53:29;;;;;;;5.47;2.63;;;19.10;99.90;;;;;;8255832;28;20074;-72